Time,TemperatureF,DewpointF,PressureIn,WindDirection,WindDirectionDegrees,WindSpeedMPH,WindSpeedGustMPH,Humidity,HourlyPrecipIn,Conditions,Clouds,dailyrainin,SoftwareType,DateUTC
2013-03-03 00:17:00,63.2,26.0,30.19,SW,221,0.0,1.0,24,0.00,,,0.00,weatherlink.com 1.10,2013-03-03 08:17:00,
2013-03-03 00:32:00,62.5,25.0,30.18,SW,221,0.0,0.0,24,0.00,,,0.00,weatherlink.com 1.10,2013-03-03 08:32:00,
2013-03-03 00:47:00,61.4,29.0,30.19,SW,221,0.0,0.0,29,0.00,,,0.00,weatherlink.com 1.10,2013-03-03 08:47:00,
2013-03-03 01:02:00,60.8,30.0,30.18,SW,221,0.0,0.0,31,0.00,,,0.00,weatherlink.com 1.10,2013-03-03 09:02:00,
2013-03-03 01:17:00,63.2,25.0,30.17,SW,220,0.0,2.0,23,0.00,,,0.00,weatherlink.com 1.10,2013-03-03 09:17:00,
2013-03-03 01:32:00,65.4,24.0,30.17,SSW,213,0.0,4.0,21,0.00,,,0.00,weatherlink.com 1.10,2013-03-03 09:32:00,
2013-03-03 01:47:00,66.6,24.0,30.15,SW,214,1.0,5.0,20,0.00,,,0.00,weatherlink.com 1.10,2013-03-03 09:47:00,
2013-03-03 02:02:00,68.0,24.0,30.14,SW,229,4.0,10.0,19,0.00,,,0.00,weatherlink.com 1.10,2013-03-03 10:02:00,
2013-03-03 02:17:00,69.1,24.0,30.13,SSW,193,6.0,16.0,18,0.00,,,0.00,weatherlink.com 1.10,2013-03-03 10:17:00,
2013-03-03 02:32:00,69.1,24.0,30.13,West,267,4.0,12.0,18,0.00,,,0.00,weatherlink.com 1.10,2013-03-03 10:32:00,
2013-03-03 02:47:00,69.3,24.0,30.11,WSW,254,5.0,16.0,18,0.00,,,0.00,weatherlink.com 1.10,2013-03-03 10:47:00,
2013-03-03 03:02:00,69.4,24.0,30.12,SW,228,4.0,9.0,18,0.00,,,0.00,weatherlink.com 1.10,2013-03-03 11:02:00,
2013-03-03 03:17:00,68.7,25.0,30.11,West,259,1.0,9.0,19,0.00,,,0.00,weatherlink.com 1.10,2013-03-03 11:17:00,
2013-03-03 03:32:00,68.7,25.0,30.11,West,279,5.0,7.0,19,0.00,,,0.00,weatherlink.com 1.10,2013-03-03 11:32:00,
2013-03-03 03:47:00,68.2,24.0,30.11,West,265,2.0,10.0,19,0.00,,,0.00,weatherlink.com 1.10,2013-03-03 11:47:00,
2013-03-03 04:02:00,68.7,23.0,30.11,WSW,250,9.0,12.0,18,0.00,,,0.00,weatherlink.com 1.10,2013-03-03 12:02:00,
2013-03-03 04:17:00,69.0,22.0,30.12,SSW,201,3.0,10.0,17,0.00,,,0.00,weatherlink.com 1.10,2013-03-03 12:17:00,
2013-03-03 04:32:00,69.1,22.0,30.10,WSW,256,2.0,10.0,17,0.00,,,0.00,weatherlink.com 1.10,2013-03-03 12:32:00,
2013-03-03 04:47:00,68.9,22.0,30.09,SW,229,4.0,9.0,17,0.00,,,0.00,weatherlink.com 1.10,2013-03-03 12:47:00,
2013-03-03 05:02:00,68.6,22.0,30.09,WSW,243,3.0,8.0,17,0.00,,,0.00,weatherlink.com 1.10,2013-03-03 13:02:00,
2013-03-03 05:17:00,68.8,22.0,30.10,WSW,238,5.0,12.0,17,0.00,,,0.00,weatherlink.com 1.10,2013-03-03 13:17:00,
2013-03-03 05:32:00,68.5,23.0,30.09,SSW,197,5.0,11.0,18,0.00,,,0.00,weatherlink.com 1.10,2013-03-03 13:32:00,
2013-03-03 05:48:00,68.2,23.0,30.08,SSW,192,7.0,9.0,18,0.00,,,0.00,weatherlink.com 1.10,2013-03-03 13:48:00,
2013-03-03 06:03:00,68.4,24.0,30.08,South,184,1.0,11.0,19,0.00,,,0.00,weatherlink.com 1.10,2013-03-03 14:03:00,
2013-03-03 06:18:00,68.5,25.0,30.09,WSW,242,7.0,14.0,19,0.00,,,0.00,weatherlink.com 1.10,2013-03-03 14:18:00,
2013-03-03 06:33:00,68.4,26.0,30.09,WSW,257,4.0,14.0,20,0.00,,,0.00,weatherlink.com 1.10,2013-03-03 14:33:00,
2013-03-03 06:48:00,68.1,25.0,30.09,SW,221,3.0,11.0,20,0.00,,,0.00,weatherlink.com 1.10,2013-03-03 14:48:00,
2013-03-03 07:03:00,67.9,25.0,30.09,WSW,250,1.0,9.0,20,0.00,,,0.00,weatherlink.com 1.10,2013-03-03 15:03:00,
2013-03-03 07:18:00,68.1,27.0,30.09,SSW,209,0.0,8.0,21,0.00,,,0.00,weatherlink.com 1.10,2013-03-03 15:18:00,
2013-03-03 07:33:00,68.0,28.0,30.09,WSW,247,0.0,7.0,22,0.00,,,0.00,weatherlink.com 1.10,2013-03-03 15:33:00,
2013-03-03 07:48:00,68.1,29.0,30.09,ESE,107,5.0,8.0,23,0.00,,,0.00,weatherlink.com 1.10,2013-03-03 15:48:00,
2013-03-03 08:03:00,68.8,29.0,30.09,West,264,8.0,15.0,23,0.00,,,0.00,weatherlink.com 1.10,2013-03-03 16:03:00,
2013-03-03 08:18:00,68.7,29.0,30.09,WSW,244,4.0,18.0,23,0.00,,,0.00,weatherlink.com 1.10,2013-03-03 16:18:00,
2013-03-03 08:33:00,69.2,31.0,30.08,WSW,256,5.0,21.0,24,0.00,,,0.00,weatherlink.com 1.10,2013-03-03 16:33:00,
2013-03-03 08:48:00,70.4,31.0,30.09,SW,223,5.0,15.0,23,0.00,,,0.00,weatherlink.com 1.10,2013-03-03 16:48:00,
2013-03-03 09:03:00,72.1,31.0,30.07,WSW,248,2.0,12.0,22,0.00,,,0.00,weatherlink.com 1.10,2013-03-03 17:03:00,
2013-03-03 09:18:00,73.1,30.0,30.07,West,263,4.0,14.0,20,0.00,,,0.00,weatherlink.com 1.10,2013-03-03 17:18:00,
2013-03-03 09:33:00,73.7,30.0,30.06,West,261,11.0,17.0,20,0.00,,,0.00,weatherlink.com 1.10,2013-03-03 17:33:00,
2013-03-03 09:48:00,74.6,30.0,30.06,WSW,242,6.0,16.0,19,0.00,,,0.00,weatherlink.com 1.10,2013-03-03 17:48:00,
2013-03-03 10:03:00,75.5,30.0,30.04,West,281,16.0,18.0,19,0.00,,,0.00,weatherlink.com 1.10,2013-03-03 18:03:00,
2013-03-03 10:18:00,75.8,29.0,30.03,SW,220,9.0,25.0,18,0.00,,,0.00,weatherlink.com 1.10,2013-03-03 18:18:00,
2013-03-03 10:33:00,76.1,30.0,30.03,WSW,248,4.0,21.0,18,0.00,,,0.00,weatherlink.com 1.10,2013-03-03 18:33:00,
2013-03-03 10:48:00,76.4,31.0,30.02,SW,233,8.0,27.0,19,0.00,,,0.00,weatherlink.com 1.10,2013-03-03 18:48:00,
2013-03-03 11:03:00,76.7,31.0,30.02,WSW,242,13.0,24.0,19,0.00,,,0.00,weatherlink.com 1.10,2013-03-03 19:03:00,
2013-03-03 11:18:00,75.3,30.0,30.02,SW,233,8.0,25.0,19,0.00,,,0.00,weatherlink.com 1.10,2013-03-03 19:18:00,
2013-03-03 11:33:00,75.4,30.0,30.02,SSW,213,11.0,25.0,19,0.00,,,0.00,weatherlink.com 1.10,2013-03-03 19:33:00,
2013-03-03 11:48:00,76.9,30.0,30.00,SSW,211,9.0,21.0,18,0.00,,,0.00,weatherlink.com 1.10,2013-03-03 19:48:00,
2013-03-03 12:03:00,76.6,30.0,30.00,West,275,7.0,21.0,18,0.00,,,0.00,weatherlink.com 1.10,2013-03-03 20:03:00,
2013-03-03 12:18:00,77.6,31.0,29.98,North,360,5.0,24.0,18,0.00,,,0.00,weatherlink.com 1.10,2013-03-03 20:18:00,
2013-03-03 12:33:00,78.1,30.0,29.98,SSW,207,8.0,17.0,17,0.00,,,0.00,weatherlink.com 1.10,2013-03-03 20:33:00,
2013-03-03 12:48:00,77.2,30.0,29.97,SSW,207,7.0,23.0,18,0.00,,,0.00,weatherlink.com 1.10,2013-03-03 20:48:00,
2013-03-03 13:03:00,78.0,31.0,29.96,West,268,4.0,23.0,18,0.00,,,0.00,weatherlink.com 1.10,2013-03-03 21:03:00,
2013-03-03 13:18:00,77.6,31.0,29.96,WSW,256,9.0,19.0,18,0.00,,,0.00,weatherlink.com 1.10,2013-03-03 21:18:00,
2013-03-03 13:33:00,78.5,30.0,29.96,WSW,242,6.0,17.0,17,0.00,,,0.00,weatherlink.com 1.10,2013-03-03 21:33:00,
2013-03-03 13:48:00,78.2,31.0,29.95,West,260,4.0,17.0,18,0.00,,,0.00,weatherlink.com 1.10,2013-03-03 21:48:00,
2013-03-03 14:03:00,77.5,31.0,29.95,WSW,255,7.0,18.0,18,0.00,,,0.00,weatherlink.com 1.10,2013-03-03 22:03:00,
2013-03-03 14:18:00,78.1,31.0,29.95,WSW,252,2.0,16.0,18,0.00,,,0.00,weatherlink.com 1.10,2013-03-03 22:18:00,
2013-03-03 14:33:00,77.7,31.0,29.95,SW,223,7.0,16.0,18,0.00,,,0.00,weatherlink.com 1.10,2013-03-03 22:33:00,
2013-03-03 14:48:00,77.7,29.0,29.95,WNW,287,6.0,15.0,17,0.00,,,0.00,weatherlink.com 1.10,2013-03-03 22:48:00,
2013-03-03 15:03:00,77.8,31.0,29.94,SW,234,7.0,19.0,18,0.00,,,0.00,weatherlink.com 1.10,2013-03-03 23:03:00,
2013-03-03 15:18:00,77.5,29.0,29.94,WSW,244,14.0,21.0,17,0.00,,,0.00,weatherlink.com 1.10,2013-03-03 23:18:00,
2013-03-03 15:33:00,78.0,31.0,29.93,South,186,7.0,19.0,18,0.00,,,0.00,weatherlink.com 1.10,2013-03-03 23:33:00,
2013-03-03 15:48:00,77.7,31.0,29.93,West,276,12.0,23.0,18,0.00,,,0.00,weatherlink.com 1.10,2013-03-03 23:48:00,
2013-03-03 16:04:00,76.9,30.0,29.93,West,265,7.0,26.0,18,0.00,,,0.00,weatherlink.com 1.10,2013-03-04 00:04:00,
2013-03-03 16:19:00,76.5,31.0,29.92,West,262,3.0,14.0,19,0.00,,,0.00,weatherlink.com 1.10,2013-03-04 00:19:00,
2013-03-03 16:34:00,76.4,31.0,29.92,WSW,257,11.0,19.0,19,0.00,,,0.00,weatherlink.com 1.10,2013-03-04 00:34:00,
2013-03-03 16:49:00,75.8,33.0,29.92,West,267,4.0,20.0,21,0.00,,,0.00,weatherlink.com 1.10,2013-03-04 00:49:00,
2013-03-03 17:04:00,75.2,33.0,29.92,WSW,243,14.0,24.0,21,0.00,,,0.00,weatherlink.com 1.10,2013-03-04 01:04:00,
2013-03-03 17:19:00,74.7,32.0,29.92,West,263,8.0,17.0,21,0.00,,,0.00,weatherlink.com 1.10,2013-03-04 01:19:00,
2013-03-03 17:34:00,74.0,32.0,29.92,WSW,253,3.0,14.0,21,0.00,,,0.00,weatherlink.com 1.10,2013-03-04 01:34:00,
2013-03-03 17:49:00,73.5,33.0,29.92,West,259,13.0,13.0,23,0.00,,,0.00,weatherlink.com 1.10,2013-03-04 01:49:00,
2013-03-03 18:04:00,73.0,34.0,29.92,WSW,246,6.0,12.0,24,0.00,,,0.00,weatherlink.com 1.10,2013-03-04 02:04:00,
2013-03-03 18:19:00,72.7,34.0,29.92,West,259,0.0,9.0,24,0.00,,,0.00,weatherlink.com 1.10,2013-03-04 02:19:00,
2013-03-03 18:34:00,72.2,34.0,29.93,NW,324,2.0,11.0,25,0.00,,,0.00,weatherlink.com 1.10,2013-03-04 02:34:00,
2013-03-03 18:49:00,71.7,35.0,29.92,South,188,3.0,17.0,26,0.00,,,0.00,weatherlink.com 1.10,2013-03-04 02:49:00,
2013-03-03 19:04:00,71.2,34.0,29.92,SW,234,5.0,16.0,26,0.00,,,0.00,weatherlink.com 1.10,2013-03-04 03:04:00,
2013-03-03 19:19:00,70.5,35.0,29.92,West,264,3.0,15.0,27,0.00,,,0.00,weatherlink.com 1.10,2013-03-04 03:19:00,
2013-03-03 19:34:00,70.1,35.0,29.91,WSW,240,10.0,19.0,28,0.00,,,0.00,weatherlink.com 1.10,2013-03-04 03:34:00,
2013-03-03 19:49:00,69.8,35.0,29.90,West,268,18.0,23.0,28,0.00,,,0.00,weatherlink.com 1.10,2013-03-04 03:49:00,
2013-03-03 20:04:00,69.4,35.0,29.91,WSW,245,9.0,25.0,28,0.00,,,0.00,weatherlink.com 1.10,2013-03-04 04:04:00,
2013-03-03 20:19:00,68.7,35.0,29.93,West,262,6.0,14.0,29,0.00,,,0.00,weatherlink.com 1.10,2013-03-04 04:19:00,
2013-03-03 20:34:00,68.1,35.0,29.93,WSW,249,5.0,18.0,30,0.00,,,0.00,weatherlink.com 1.10,2013-03-04 04:34:00,
2013-03-03 20:49:00,67.7,36.0,29.93,West,262,6.0,19.0,31,0.00,,,0.00,weatherlink.com 1.10,2013-03-04 04:49:00,
2013-03-03 21:04:00,67.2,36.0,29.93,SW,219,7.0,22.0,32,0.00,,,0.00,weatherlink.com 1.10,2013-03-04 05:04:00,
2013-03-03 21:19:00,66.3,35.0,29.93,WSW,246,7.0,21.0,32,0.00,,,0.00,weatherlink.com 1.10,2013-03-04 05:19:00,
2013-03-03 21:34:00,65.8,36.0,29.94,West,261,6.0,18.0,33,0.00,,,0.00,weatherlink.com 1.10,2013-03-04 05:34:00,
2013-03-03 21:49:00,65.4,36.0,29.93,WSW,252,8.0,20.0,34,0.00,,,0.00,weatherlink.com 1.10,2013-03-04 05:49:00,
2013-03-03 22:04:00,65.0,35.0,29.93,SW,225,15.0,18.0,33,0.00,,,0.00,weatherlink.com 1.10,2013-03-04 06:04:00,
2013-03-03 22:19:00,64.9,35.0,29.93,SW,233,6.0,17.0,33,0.00,,,0.00,weatherlink.com 1.10,2013-03-04 06:19:00,
2013-03-03 22:34:00,64.4,35.0,29.94,West,265,6.0,18.0,33,0.00,,,0.00,weatherlink.com 1.10,2013-03-04 06:34:00,
2013-03-03 22:49:00,64.2,34.0,29.94,WSW,238,9.0,21.0,33,0.00,,,0.00,weatherlink.com 1.10,2013-03-04 06:49:00,
2013-03-03 23:04:00,63.7,35.0,29.96,West,273,4.0,11.0,34,0.00,,,0.00,weatherlink.com 1.10,2013-03-04 07:04:00,
2013-03-03 23:19:00,63.3,35.0,29.95,WSW,250,7.0,16.0,35,0.00,,,0.00,weatherlink.com 1.10,2013-03-04 07:19:00,
2013-03-03 23:34:00,63.1,35.0,29.96,WSW,242,5.0,14.0,35,0.00,,,0.00,weatherlink.com 1.10,2013-03-04 07:34:00,
2013-03-03 23:49:00,62.6,35.0,29.97,SW,234,11.0,11.0,36,0.00,,,0.00,weatherlink.com 1.10,2013-03-04 07:49:00,